createdAt,value
2018-01-11T00:00:19.155Z,8.73
2018-01-11T00:02:46.083Z,8.77
2018-01-11T00:05:12.944Z,9.23
2018-01-11T00:07:39.963Z,9.20
2018-01-11T00:10:06.845Z,9.23
2018-01-11T00:12:34.327Z,9.17
2018-01-11T00:15:01.245Z,9.40
2018-01-11T00:17:29.554Z,9.50
2018-01-11T00:19:57.214Z,9.68
2018-01-11T00:22:24.032Z,9.32
2018-01-11T00:24:51.035Z,10.00
2018-01-11T00:27:17.963Z,10.02
2018-01-11T00:29:45.577Z,9.80
2018-01-11T00:32:12.776Z,10.10
2018-01-11T00:34:39.818Z,9.07
2018-01-11T00:37:07.388Z,11.57
2018-01-11T00:39:34.618Z,9.30
2018-01-11T00:42:01.796Z,9.40
2018-01-11T00:44:28.925Z,10.80
2018-01-11T00:46:56.143Z,11.57
2018-01-11T00:49:23.628Z,10.40
2018-01-11T00:51:51.465Z,10.23
2018-01-11T00:54:18.490Z,10.07
2018-01-11T00:56:48.015Z,10.02
2018-01-11T00:59:15.132Z,10.30
2018-01-11T01:01:44.276Z,9.40
2018-01-11T01:04:11.342Z,11.38
2018-01-11T01:06:38.401Z,11.15
2018-01-11T01:09:06.886Z,11.90
2018-01-11T01:11:35.280Z,10.13
2018-01-11T01:14:05.765Z,10.68
2018-01-11T01:16:34.140Z,11.00
2018-01-11T01:19:01.270Z,11.48
2018-01-11T01:21:30.146Z,11.23
2018-01-11T01:23:57.430Z,11.02
2018-01-11T01:26:25.261Z,12.45
2018-01-11T01:28:52.998Z,12.20
2018-01-11T01:31:20.026Z,12.50
2018-01-11T01:33:46.925Z,12.35
2018-01-11T01:36:14.297Z,11.30
2018-01-11T01:38:43.197Z,12.67
2018-01-11T01:41:10.129Z,11.52
2018-01-11T01:43:36.982Z,11.82
2018-01-11T01:46:04.369Z,12.77
2018-01-11T01:48:43.269Z,11.82
2018-01-11T01:51:11.242Z,11.38
2018-01-11T01:53:38.337Z,10.90
2018-01-11T01:56:06.350Z,10.63
2018-01-11T01:58:33.294Z,12.73
2018-01-11T02:01:00.194Z,11.73
2018-01-11T02:03:27.857Z,11.68
2018-01-11T02:05:55.015Z,11.20
2018-01-11T02:08:21.915Z,10.90
2018-01-11T02:10:49.531Z,11.80
2018-01-11T02:13:16.899Z,11.23
2018-01-11T02:15:52.898Z,12.45
2018-01-11T02:18:23.494Z,11.55
2018-01-11T02:20:53.782Z,11.75
2018-01-11T02:23:24.700Z,11.20
2018-01-11T02:25:57.721Z,13.45
2018-01-11T02:31:11.344Z,12.63
2018-01-11T02:33:43.525Z,11.52
2018-01-11T02:36:11.846Z,12.13
2018-01-11T02:38:47.196Z,11.83
2018-01-11T02:46:53.970Z,13.43
2018-01-11T02:49:46.002Z,11.57
2018-01-11T02:52:16.447Z,12.15
2018-01-11T02:57:20.643Z,13.85
2018-01-11T03:17:56.435Z,10.27
2018-01-11T03:20:24.452Z,11.30
2018-01-11T03:22:57.304Z,11.27
2018-01-11T03:25:25.685Z,12.70
2018-01-11T03:27:54.345Z,12.30
2018-01-11T03:30:23.448Z,10.10
2018-01-11T03:32:51.681Z,12.77
2018-01-11T03:35:19.812Z,11.80
2018-01-11T03:37:48.997Z,12.77
2018-01-11T03:40:16.704Z,13.70
2018-01-11T03:42:44.697Z,13.80
2018-01-11T03:45:12.276Z,11.93
2018-01-11T03:47:39.927Z,12.20
2018-01-11T03:50:07.485Z,14.10
2018-01-11T03:52:35.008Z,14.30
2018-01-11T03:55:02.568Z,12.05
2018-01-11T03:57:31.054Z,13.35
2018-01-11T03:59:58.461Z,13.77
2018-01-11T04:02:43.306Z,13.27
2018-01-11T04:05:10.769Z,12.90
2018-01-11T04:07:39.486Z,13.38
2018-01-11T04:10:07.394Z,11.90
2018-01-11T04:12:34.911Z,12.25
2018-01-11T04:15:02.157Z,14.43
2018-01-11T04:17:29.598Z,11.65
2018-01-11T04:19:57.097Z,13.30
2018-01-11T04:22:25.430Z,13.00
2018-01-11T04:24:52.943Z,13.73
2018-01-11T04:27:22.315Z,11.70
2018-01-11T04:29:49.801Z,12.45
2018-01-11T04:32:17.267Z,11.93
2018-01-11T04:34:46.271Z,12.65
2018-01-11T04:37:13.805Z,13.82
2018-01-11T04:39:44.035Z,14.30
2018-01-11T04:42:13.353Z,13.95
2018-01-11T04:44:41.573Z,12.77
2018-01-11T04:47:14.081Z,12.43
2018-01-11T04:49:42.963Z,12.13
2018-01-11T04:52:10.434Z,12.55
2018-01-11T04:54:44.126Z,13.35
2018-01-11T05:15:11.313Z,14.50
2018-01-11T05:17:42.699Z,14.95
2018-01-11T05:20:13.268Z,15.52
2018-01-11T05:23:03.780Z,13.45
2018-01-11T05:25:38.410Z,14.25
2018-01-11T05:28:08.992Z,15.65
2018-01-11T06:30:32.662Z,17.65
2018-01-11T07:07:24.782Z,15.82
2018-01-11T07:09:55.081Z,18.27
2018-01-11T07:12:26.131Z,16.70
2018-01-11T07:17:33.889Z,14.48
2018-01-11T07:22:40.445Z,17.37
2018-01-11T07:25:09.774Z,19.02
2018-01-11T07:27:43.552Z,19.42
2018-01-11T07:30:11.239Z,19.37
2018-01-11T07:32:41.009Z,20.48
2018-01-11T07:35:17.037Z,19.85
2018-01-11T07:37:44.687Z,20.55
2018-01-11T07:42:50.009Z,20.55
2018-01-11T07:45:23.207Z,18.48
2018-01-11T07:47:54.451Z,17.60
2018-01-11T07:50:26.977Z,18.62
2018-01-11T07:52:54.365Z,19.40
2018-01-11T07:55:21.639Z,17.08
2018-01-11T07:57:49.695Z,20.23
2018-01-11T08:00:17.628Z,19.92
2018-01-11T08:02:45.384Z,18.80
2018-01-11T08:05:12.608Z,17.95
2018-01-11T08:07:39.891Z,17.80
2018-01-11T08:10:07.323Z,18.90
2018-01-11T08:12:36.188Z,19.50
2018-01-11T08:15:04.120Z,20.27
2018-01-11T08:17:31.420Z,20.35
2018-01-11T08:19:59.319Z,21.40
2018-01-11T08:22:26.599Z,19.52
2018-01-11T08:24:54.090Z,19.62
2018-01-11T08:27:21.431Z,18.98
2018-01-11T08:29:49.039Z,19.85
2018-01-11T08:32:16.487Z,20.20
2018-01-11T08:34:43.887Z,18.40
2018-01-11T08:37:11.266Z,19.40
2018-01-11T08:39:38.561Z,18.73
2018-01-11T08:42:06.022Z,18.65
2018-01-11T08:44:33.461Z,20.35
2018-01-11T08:47:00.806Z,18.80
2018-01-11T08:49:28.016Z,18.02
2018-01-11T08:51:55.177Z,16.83
2018-01-11T08:54:22.461Z,20.67
2018-01-11T08:56:49.589Z,20.13
2018-01-11T08:59:19.186Z,21.50
2018-01-11T09:01:47.044Z,21.97
2018-01-11T09:04:14.437Z,22.55
2018-01-11T09:06:42.543Z,22.50
2018-01-11T09:09:09.783Z,23.40
2018-01-11T09:11:37.032Z,21.90
2018-01-11T09:14:04.605Z,23.70
2018-01-11T09:16:31.806Z,22.47
2018-01-11T09:18:58.854Z,20.37
2018-01-11T09:21:26.145Z,22.17
2018-01-11T09:23:53.606Z,20.80
2018-01-11T09:26:20.848Z,21.90
2018-01-11T09:28:49.047Z,23.27
2018-01-11T09:31:16.417Z,23.83
2018-01-11T09:33:43.609Z,23.30
2018-01-11T09:36:10.875Z,21.90
2018-01-11T09:38:38.242Z,21.37
2018-01-11T09:41:06.527Z,21.60
2018-01-11T09:43:34.923Z,22.13
2018-01-11T09:46:02.011Z,19.23
2018-01-11T09:48:29.308Z,20.20
2018-01-11T09:50:57.320Z,20.50
2018-01-11T09:53:24.530Z,23.53
2018-01-11T09:55:51.626Z,22.77
2018-01-11T09:58:19.743Z,23.20
2018-01-11T10:00:47.019Z,21.13
2018-01-11T10:03:13.948Z,21.07
2018-01-11T10:05:40.904Z,22.07
2018-01-11T10:08:07.980Z,21.67
2018-01-11T10:10:35.017Z,21.87
2018-01-11T10:13:02.130Z,20.40
2018-01-11T10:15:29.972Z,21.43
2018-01-11T10:18:00.567Z,21.70
2018-01-11T10:20:28.054Z,22.33
2018-01-11T10:25:35.570Z,22.50
2018-01-11T10:28:02.941Z,23.23
2018-01-11T10:30:30.360Z,21.63
2018-01-11T10:32:58.742Z,23.37
2018-01-11T10:35:26.386Z,22.60
2018-01-11T10:37:54.656Z,20.73
2018-01-11T10:40:23.026Z,22.00
2018-01-11T10:42:50.986Z,21.50
2018-01-11T10:45:23.526Z,21.50
2018-01-11T10:47:53.998Z,20.80
2018-01-11T10:50:23.457Z,22.53
2018-01-11T11:10:52.158Z,21.17
2018-01-11T11:55:48.639Z,21.87
2018-01-11T12:46:09.220Z,20.30
2018-01-11T13:04:20.244Z,19.00
2018-01-11T13:07:18.146Z,19.80
2018-01-11T13:09:50.083Z,19.00
2018-01-11T13:12:17.042Z,19.83
2018-01-11T13:14:44.019Z,19.50
2018-01-11T13:17:12.354Z,18.73
2018-01-11T13:19:39.884Z,18.90
2018-01-11T13:24:39.595Z,19.60
2018-01-11T13:29:43.295Z,19.30
2018-01-11T13:32:10.882Z,20.70
2018-01-11T13:34:38.121Z,18.63
2018-01-11T13:37:15.922Z,19.90
2018-01-11T13:42:38.933Z,21.20
2018-01-11T13:45:17.154Z,20.23
2018-01-11T13:47:50.434Z,19.43
2018-01-11T13:50:20.516Z,19.67
2018-01-11T13:52:51.268Z,20.93
2018-01-11T14:03:57.059Z,20.07
2018-01-11T14:06:26.301Z,20.10
2018-01-11T14:09:01.909Z,21.80
2018-01-11T14:11:42.559Z,20.00
2018-01-11T14:14:29.718Z,21.00
2018-01-11T14:25:19.242Z,21.17
2018-01-11T14:27:55.933Z,22.13
2018-01-11T14:52:21.864Z,20.70
2018-01-11T15:49:36.209Z,22.63
2018-01-11T15:52:29.131Z,22.37
2018-01-11T15:55:07.491Z,23.53
2018-01-11T17:15:37.564Z,22.83
2018-01-11T18:32:58.818Z,39.63
2018-01-11T18:35:27.141Z,44.50
2018-01-11T18:37:56.544Z,39.70
2018-01-11T18:40:24.538Z,38.13
2018-01-11T19:24:33.069Z,51.83
2018-01-11T19:27:01.143Z,51.90
2018-01-11T20:09:19.937Z,56.97
2018-01-11T20:11:49.867Z,58.90
2018-01-11T20:14:20.034Z,52.17
2018-01-11T20:16:55.684Z,58.20
2018-01-11T20:22:00.523Z,56.42
2018-01-11T20:24:30.322Z,46.70
2018-01-11T20:29:38.942Z,45.33
2018-01-11T20:32:07.640Z,48.50
2018-01-11T20:55:27.686Z,45.60
2018-01-11T21:40:28.546Z,52.08
2018-01-11T21:42:55.407Z,46.87
2018-01-11T21:45:22.357Z,48.47
2018-01-11T21:47:50.158Z,47.97
2018-01-11T21:50:17.079Z,46.80
2018-01-11T21:52:43.929Z,49.35
2018-01-11T21:55:10.888Z,50.75
2018-01-11T21:57:39.123Z,52.13
2018-01-11T22:00:06.039Z,55.12
2018-01-11T22:02:32.829Z,54.90
2018-01-11T22:05:00.431Z,53.08
2018-01-11T22:07:27.293Z,56.72
2018-01-11T22:09:54.690Z,48.85
2018-01-11T22:12:21.560Z,50.20
2018-01-11T22:14:48.392Z,47.03
2018-01-11T22:17:15.296Z,48.40
2018-01-11T22:19:42.245Z,50.53
2018-01-11T22:22:09.100Z,55.90
2018-01-11T22:24:36.043Z,52.67
2018-01-11T22:27:02.950Z,48.78
2018-01-11T22:29:29.779Z,48.50
2018-01-11T22:31:56.672Z,53.90
2018-01-11T22:34:23.510Z,53.60
2018-01-11T22:36:50.337Z,49.45
2018-01-11T22:39:17.894Z,51.50
2018-01-11T22:41:44.706Z,48.78
2018-01-11T22:44:11.561Z,48.67
2018-01-11T22:46:38.435Z,49.50
2018-01-11T22:49:05.253Z,53.55
2018-01-11T22:51:32.836Z,48.28
2018-01-11T22:54:00.400Z,50.75
2018-01-11T22:56:27.208Z,49.00
2018-01-11T22:58:54.033Z,51.70
2018-01-11T23:01:21.647Z,50.60
2018-01-11T23:03:48.438Z,53.20
2018-01-11T23:06:15.328Z,50.85
2018-01-11T23:08:42.889Z,49.38
2018-01-11T23:11:09.715Z,53.70
2018-01-11T23:13:36.548Z,54.33
2018-01-11T23:16:03.402Z,45.53
2018-01-11T23:18:30.222Z,48.78
2018-01-11T23:20:56.995Z,48.38
2018-01-11T23:23:23.849Z,47.22
2018-01-11T23:25:51.041Z,49.30
2018-01-11T23:28:17.868Z,49.80
2018-01-11T23:30:44.675Z,51.47
2018-01-11T23:33:12.146Z,48.00
2018-01-11T23:35:38.971Z,49.45
2018-01-11T23:38:05.798Z,49.90
2018-01-11T23:40:32.639Z,51.05
2018-01-11T23:42:59.477Z,51.42
2018-01-11T23:45:27.011Z,51.92
2018-01-11T23:47:53.891Z,55.03
2018-01-11T23:50:20.761Z,52.53
2018-01-11T23:52:47.620Z,51.22
2018-01-11T23:55:14.400Z,51.25
2018-01-11T23:57:42.014Z,52.00
